createdAt,value
2023-03-25T00:01:01.873Z,1.67
2023-03-25T00:03:34.300Z,1.88
2023-03-25T00:06:04.222Z,0.60
2023-03-25T00:08:34.877Z,2.92
2023-03-25T00:11:04.982Z,1.23
2023-03-25T00:13:36.136Z,1.38
2023-03-25T00:16:07.675Z,0.75
2023-03-25T00:21:10.991Z,1.65
2023-03-25T00:23:42.908Z,2.20
2023-03-25T00:26:11.904Z,2.30
2023-03-25T00:28:41.521Z,5.38
2023-03-25T00:31:14.040Z,1.15
2023-03-25T00:33:43.095Z,0.82
2023-03-25T00:36:13.989Z,1.92
2023-03-25T00:38:45.759Z,1.42
2023-03-25T00:41:18.630Z,1.50
2023-03-25T00:43:47.726Z,1.95
2023-03-25T00:46:17.081Z,1.27
2023-03-25T00:48:46.473Z,0.70
2023-03-25T00:51:19.575Z,1.92
2023-03-25T00:53:52.373Z,2.72
2023-03-25T00:56:21.417Z,0.80
2023-03-25T00:58:50.181Z,2.92
2023-03-25T01:01:23.914Z,1.40
2023-03-25T01:03:58.260Z,0.98
2023-03-25T01:06:30.701Z,1.98
2023-03-25T01:09:02.603Z,2.58
2023-03-25T01:11:35.085Z,0.98
2023-03-25T01:14:05.021Z,2.85
2023-03-25T01:16:34.285Z,1.83
2023-03-25T01:19:03.360Z,2.55
2023-03-25T01:21:34.290Z,1.85
2023-03-25T01:24:04.736Z,2.05
2023-03-25T01:26:33.992Z,1.00
2023-03-25T01:29:02.996Z,2.75
2023-03-25T01:31:31.709Z,1.38
2023-03-25T01:34:01.074Z,0.80
2023-03-25T01:36:31.128Z,0.45
2023-03-25T01:39:02.589Z,1.08
2023-03-25T01:41:46.444Z,2.38
2023-03-25T01:44:56.676Z,0.65
2023-03-25T01:47:27.058Z,0.98
2023-03-25T01:49:55.668Z,0.38
2023-03-25T01:52:27.895Z,0.17
2023-03-25T01:54:58.662Z,0.85
2023-03-25T01:57:31.744Z,0.20
2023-03-25T02:00:00.965Z,0.63
2023-03-25T02:02:35.220Z,0.68
2023-03-25T02:05:11.067Z,0.90
2023-03-25T02:07:48.251Z,0.60
2023-03-25T02:10:19.501Z,1.17
2023-03-25T02:12:52.432Z,3.40
2023-03-25T02:15:21.855Z,0.30
2023-03-25T02:18:10.862Z,0.90
2023-03-25T02:21:15.050Z,0.40
2023-03-25T02:24:30.200Z,0.82
2023-03-25T02:27:27.697Z,2.45
2023-03-25T02:30:21.209Z,0.13
2023-03-25T02:33:18.442Z,0.73
2023-03-25T02:36:07.074Z,2.65
2023-03-25T02:38:44.971Z,0.70
2023-03-25T02:41:21.874Z,0.85
2023-03-25T02:43:56.519Z,0.20
2023-03-25T02:46:29.713Z,0.20
2023-03-25T02:49:05.012Z,1.25
2023-03-25T02:51:37.665Z,0.32
2023-03-25T02:54:11.531Z,0.05
2023-03-25T02:56:45.233Z,0.60
2023-03-25T02:59:15.176Z,1.60
2023-03-25T03:01:45.915Z,0.70
2023-03-25T03:04:14.704Z,0.90
2023-03-25T03:06:45.434Z,0.68
2023-03-25T03:09:27.362Z,1.60
2023-03-25T03:12:05.148Z,0.15
2023-03-25T03:14:45.507Z,0.73
2023-03-25T03:17:22.411Z,0.10
2023-03-25T03:19:54.601Z,0.38
2023-03-25T03:22:36.809Z,0.50
2023-03-25T03:25:14.330Z,0.20
2023-03-25T03:27:48.724Z,0.30
2023-03-25T03:30:28.075Z,1.02
2023-03-25T03:33:02.384Z,0.52
2023-03-25T03:35:34.931Z,0.15
2023-03-25T03:38:09.947Z,0.03
2023-03-25T03:40:45.114Z,0.00
2023-03-25T03:43:22.501Z,0.32
2023-03-25T03:45:54.689Z,0.10
2023-03-25T03:48:28.085Z,0.32
2023-03-25T03:51:02.485Z,0.68
2023-03-25T03:53:34.758Z,0.10
2023-03-25T03:56:09.582Z,0.20
2023-03-25T03:58:43.275Z,1.10
2023-03-25T04:01:16.181Z,0.63
2023-03-25T04:03:48.923Z,1.05
2023-03-25T04:06:24.810Z,2.00
2023-03-25T04:09:00.276Z,0.08
2023-03-25T04:11:38.689Z,0.43
2023-03-25T04:14:09.205Z,0.70
2023-03-25T04:16:39.109Z,0.30
2023-03-25T04:19:09.667Z,0.70
2023-03-25T04:21:38.755Z,0.25
2023-03-25T04:24:08.335Z,0.28
2023-03-25T04:26:38.783Z,1.15
2023-03-25T04:29:09.700Z,0.65
2023-03-25T04:31:47.008Z,0.30
2023-03-25T04:34:16.425Z,1.35
2023-03-25T04:36:44.976Z,0.30
2023-03-25T04:39:14.329Z,0.25
2023-03-25T04:41:44.723Z,0.17
2023-03-25T04:44:13.728Z,0.35
2023-03-25T04:46:42.985Z,1.45
2023-03-25T04:49:21.506Z,0.45
2023-03-25T04:51:51.763Z,0.00
2023-03-25T04:54:21.750Z,0.52
2023-03-25T04:56:54.493Z,0.13
2023-03-25T04:59:23.736Z,1.48
2023-03-25T05:01:53.196Z,0.88
2023-03-25T05:04:22.037Z,0.20
2023-03-25T05:06:52.841Z,0.00
2023-03-25T05:09:24.528Z,0.40
2023-03-25T05:14:25.190Z,0.10
2023-03-25T05:16:57.613Z,0.00
2023-03-25T05:19:29.888Z,0.00
2023-03-25T05:22:02.682Z,0.45
2023-03-25T05:24:32.627Z,0.00
2023-03-25T05:27:04.045Z,0.00
2023-03-25T05:29:36.085Z,0.32
2023-03-25T05:32:06.836Z,0.00
2023-03-25T05:34:35.617Z,0.10
2023-03-25T05:37:04.301Z,0.08
2023-03-25T05:39:33.228Z,0.00
2023-03-25T05:42:03.414Z,0.43
2023-03-25T05:44:32.048Z,0.00
2023-03-25T05:47:01.918Z,0.30
2023-03-25T05:49:30.949Z,0.00
2023-03-25T05:52:00.222Z,0.00
2023-03-25T05:54:29.908Z,0.00
2023-03-25T05:56:58.350Z,0.00
2023-03-25T05:59:30.557Z,0.05
2023-03-25T06:01:59.059Z,0.15
2023-03-25T06:04:28.675Z,0.00
2023-03-25T06:06:57.266Z,0.05
2023-03-25T06:09:26.369Z,0.00
2023-03-25T06:11:55.025Z,0.55
2023-03-25T06:14:25.878Z,0.10
2023-03-25T06:16:56.979Z,0.00
2023-03-25T06:19:27.148Z,0.13
2023-03-25T06:21:56.548Z,0.40
2023-03-25T06:24:25.501Z,0.70
2023-03-25T06:26:54.387Z,2.00
2023-03-25T06:29:23.009Z,0.82
2023-03-25T06:31:52.203Z,0.60
2023-03-25T06:34:25.157Z,3.45
2023-03-25T06:36:54.870Z,3.83
2023-03-25T06:39:24.031Z,0.73
2023-03-25T06:41:52.747Z,0.25
2023-03-25T06:44:24.646Z,0.65
2023-03-25T06:46:54.333Z,1.33
2023-03-25T06:49:24.841Z,1.40
2023-03-25T06:51:53.478Z,2.95
2023-03-25T06:54:22.887Z,1.13
2023-03-25T06:56:51.876Z,1.52
2023-03-25T06:59:20.528Z,2.03
2023-03-25T07:01:49.358Z,0.60
2023-03-25T07:04:19.636Z,3.40
2023-03-25T07:06:49.688Z,0.93
2023-03-25T07:09:18.538Z,0.60
2023-03-25T07:11:47.562Z,0.77
2023-03-25T07:14:16.685Z,0.52
2023-03-25T07:16:47.570Z,0.55
2023-03-25T07:19:17.371Z,0.77
2023-03-25T07:21:46.430Z,1.00
2023-03-25T07:24:16.681Z,1.15
2023-03-25T07:26:45.627Z,0.68
2023-03-25T07:29:15.387Z,0.93
2023-03-25T07:31:44.005Z,1.13
2023-03-25T07:34:12.651Z,1.58
2023-03-25T07:36:41.135Z,1.40
2023-03-25T07:39:10.432Z,1.40
2023-03-25T07:41:42.187Z,1.40
2023-03-25T07:46:40.044Z,2.05
2023-03-25T07:49:09.368Z,2.67
2023-03-25T07:51:38.378Z,2.35
2023-03-25T07:54:07.249Z,2.25
2023-03-25T07:56:36.304Z,1.10
2023-03-25T07:59:07.125Z,0.57
2023-03-25T08:01:36.303Z,0.67
2023-03-25T08:04:05.350Z,0.85
2023-03-25T08:06:34.516Z,0.40
2023-03-25T08:09:03.459Z,0.60
2023-03-25T08:11:34.633Z,0.47
2023-03-25T08:14:03.381Z,0.88
2023-03-25T08:16:34.145Z,0.80
2023-03-25T08:19:02.628Z,0.73
2023-03-25T08:21:32.834Z,1.08
2023-03-25T08:24:04.854Z,0.57
2023-03-25T08:26:35.315Z,1.02
2023-03-25T08:29:05.772Z,1.35
2023-03-25T08:31:39.220Z,2.17
2023-03-25T08:34:09.251Z,2.05
2023-03-25T08:36:39.721Z,1.80
2023-03-25T08:39:12.002Z,1.20
2023-03-25T08:41:40.776Z,1.58
2023-03-25T08:44:09.516Z,1.48
2023-03-25T08:46:39.896Z,1.38
2023-03-25T08:49:08.655Z,1.95
2023-03-25T08:51:40.603Z,2.05
2023-03-25T08:54:09.190Z,1.00
2023-03-25T08:56:38.388Z,0.52
2023-03-25T08:59:07.367Z,1.20
2023-03-25T09:01:37.203Z,2.47
2023-03-25T09:04:07.630Z,1.45
2023-03-25T09:06:47.852Z,1.63
2023-03-25T09:09:25.553Z,1.27
2023-03-25T09:11:54.649Z,1.45
2023-03-25T09:14:23.584Z,1.33
2023-03-25T09:16:52.168Z,4.07
2023-03-25T09:19:22.766Z,1.58
2023-03-25T09:21:52.566Z,4.50
2023-03-25T09:24:22.899Z,1.42
2023-03-25T09:26:52.388Z,2.53
2023-03-25T09:29:20.800Z,1.42
2023-03-25T09:31:50.304Z,3.05
2023-03-25T09:34:19.414Z,4.25
2023-03-25T09:36:49.609Z,2.38
2023-03-25T09:39:18.315Z,2.08
2023-03-25T09:42:20.581Z,2.35
2023-03-25T09:44:58.810Z,2.03
2023-03-25T09:47:28.714Z,1.88
2023-03-25T09:50:01.452Z,0.90
2023-03-25T09:52:37.711Z,0.90
2023-03-25T09:55:10.977Z,1.17
2023-03-25T09:57:49.304Z,1.77
2023-03-25T10:00:22.762Z,0.82
2023-03-25T10:02:57.570Z,1.35
2023-03-25T10:05:49.137Z,1.05
2023-03-25T10:08:29.684Z,1.45
2023-03-25T10:11:05.122Z,1.85
2023-03-25T10:13:41.468Z,2.50
2023-03-25T10:16:19.324Z,1.83
2023-03-25T10:19:01.134Z,2.15
2023-03-25T10:21:38.008Z,2.80
2023-03-25T10:24:19.212Z,2.10
2023-03-25T10:26:53.084Z,1.65
2023-03-25T10:29:27.512Z,1.23
2023-03-25T10:31:59.886Z,1.40
2023-03-25T10:34:36.234Z,1.25
2023-03-25T10:37:08.595Z,1.27
2023-03-25T10:39:40.296Z,0.38
2023-03-25T10:42:22.731Z,1.00
2023-03-25T10:44:51.508Z,1.23
2023-03-25T10:47:21.534Z,1.40
2023-03-25T10:49:52.631Z,0.70
2023-03-25T10:52:22.379Z,1.20
2023-03-25T10:54:56.361Z,1.77
2023-03-25T10:57:28.745Z,3.30
2023-03-25T11:00:06.674Z,1.60
2023-03-25T11:02:36.336Z,1.33
2023-03-25T11:05:09.169Z,0.55
2023-03-25T11:07:39.334Z,1.15
2023-03-25T11:10:22.051Z,0.65
2023-03-25T11:12:53.576Z,1.20
2023-03-25T11:18:00.750Z,0.88
2023-03-25T11:20:33.465Z,0.50
2023-03-25T11:23:09.634Z,0.60
2023-03-25T11:25:43.674Z,1.73
2023-03-25T11:28:18.096Z,0.52
2023-03-25T11:31:11.514Z,0.65
2023-03-25T11:33:42.139Z,0.85
2023-03-25T11:36:22.987Z,0.57
2023-03-25T11:38:58.889Z,0.87
2023-03-25T11:41:34.031Z,0.45
2023-03-25T11:44:09.488Z,0.73
2023-03-25T11:46:45.586Z,0.28
2023-03-25T11:49:22.093Z,0.30
2023-03-25T11:51:52.939Z,0.60
2023-03-25T11:54:21.560Z,0.60
2023-03-25T11:56:52.371Z,0.40
2023-03-25T11:59:25.135Z,0.82
2023-03-25T12:02:02.934Z,0.50
2023-03-25T12:04:32.648Z,0.25
2023-03-25T12:07:08.739Z,2.15
2023-03-25T12:09:38.432Z,0.60
2023-03-25T12:12:28.919Z,0.40
2023-03-25T12:15:08.438Z,0.30
2023-03-25T12:17:50.591Z,0.43
2023-03-25T12:20:27.767Z,1.42
2023-03-25T12:23:04.501Z,1.63
2023-03-25T12:25:43.329Z,1.02
2023-03-25T12:28:56.959Z,2.00
2023-03-25T12:31:35.527Z,0.73
2023-03-25T12:34:15.119Z,0.90
2023-03-25T12:36:55.029Z,0.90
2023-03-25T12:39:44.020Z,1.00
2023-03-25T12:42:28.327Z,0.90
2023-03-25T12:45:15.625Z,0.50
2023-03-25T12:47:54.508Z,0.68
2023-03-25T12:50:37.385Z,1.40
2023-03-25T12:53:23.431Z,0.75
2023-03-25T12:56:05.464Z,1.58
2023-03-25T12:59:00.028Z,2.45
2023-03-25T13:01:38.363Z,0.82
2023-03-25T13:04:25.795Z,0.70
2023-03-25T13:07:02.543Z,0.30
2023-03-25T13:09:36.047Z,0.63
2023-03-25T13:12:11.489Z,0.55
2023-03-25T13:14:44.818Z,1.13
2023-03-25T13:17:27.925Z,0.88
2023-03-25T13:20:02.073Z,2.00
2023-03-25T13:22:36.680Z,1.98
2023-03-25T13:25:10.132Z,2.58
2023-03-25T13:27:43.207Z,3.13
2023-03-25T13:30:19.380Z,4.50
2023-03-25T13:32:52.085Z,2.50
2023-03-25T13:35:30.525Z,1.70
2023-03-25T13:38:04.830Z,2.63
2023-03-25T13:40:38.950Z,1.58
2023-03-25T13:43:15.064Z,2.30
2023-03-25T13:45:51.345Z,1.50
2023-03-25T13:48:25.676Z,1.00
2023-03-25T13:50:57.715Z,3.17
2023-03-25T13:53:33.601Z,2.58
2023-03-25T13:56:25.489Z,2.55
2023-03-25T13:59:12.611Z,1.17
2023-03-25T14:02:11.103Z,0.65
2023-03-25T14:05:02.432Z,0.75
2023-03-25T14:08:16.313Z,0.38
2023-03-25T14:10:55.331Z,0.60
2023-03-25T14:13:31.526Z,0.50
2023-03-25T14:16:04.679Z,0.60
2023-03-25T14:18:34.576Z,0.35
2023-03-25T14:21:17.445Z,1.02
2023-03-25T14:23:46.650Z,0.80
2023-03-25T14:26:20.602Z,1.15
2023-03-25T14:28:49.163Z,1.27
2023-03-25T14:31:30.684Z,0.73
2023-03-25T14:37:27.093Z,0.43
2023-03-25T14:39:59.846Z,1.00
2023-03-25T14:42:44.016Z,1.20
2023-03-25T14:46:01.996Z,0.90
2023-03-25T14:48:39.245Z,0.30
2023-03-25T14:51:45.571Z,0.40
2023-03-25T14:54:27.606Z,0.10
2023-03-25T14:57:04.071Z,0.45
2023-03-25T14:59:38.927Z,0.63
2023-03-25T15:02:17.099Z,0.63
2023-03-25T15:04:48.106Z,0.90
2023-03-25T15:07:21.028Z,1.38
2023-03-25T15:09:54.343Z,0.65
2023-03-25T15:12:26.488Z,0.00
2023-03-25T15:15:08.939Z,0.30
2023-03-25T15:17:44.662Z,0.65
2023-03-25T15:20:36.297Z,0.90
2023-03-25T15:23:41.205Z,0.15
2023-03-25T15:26:15.886Z,0.40
2023-03-25T15:29:26.083Z,0.73
2023-03-25T15:32:08.915Z,0.40
2023-03-25T15:34:58.494Z,0.43
2023-03-25T15:37:56.141Z,0.50
2023-03-25T15:40:33.382Z,2.15
2023-03-25T15:43:18.114Z,0.88
2023-03-25T15:46:29.604Z,0.50
2023-03-25T15:49:19.659Z,0.82
2023-03-25T15:52:00.760Z,0.40
2023-03-25T15:54:34.798Z,0.40
2023-03-25T15:57:09.736Z,2.35
2023-03-25T15:59:44.552Z,0.40
2023-03-25T16:02:23.271Z,0.43
2023-03-25T16:04:55.708Z,0.35
2023-03-25T16:07:29.025Z,0.50
2023-03-25T16:09:59.526Z,2.42
2023-03-25T16:12:31.493Z,1.52
2023-03-25T16:15:01.404Z,0.20
2023-03-25T16:17:34.772Z,1.45
2023-03-25T16:20:07.793Z,0.95
2023-03-25T16:22:38.419Z,1.15
2023-03-25T16:25:14.628Z,1.83
2023-03-25T16:27:46.667Z,0.30
2023-03-25T16:30:24.949Z,0.45
2023-03-25T16:32:55.244Z,0.88
2023-03-25T16:35:28.805Z,0.82
2023-03-25T16:37:59.292Z,1.58
2023-03-25T16:40:31.662Z,1.75
2023-03-25T16:43:06.804Z,0.85
2023-03-25T16:45:36.625Z,1.13
2023-03-25T16:48:09.853Z,0.57
2023-03-25T16:50:41.561Z,1.10
2023-03-25T16:53:13.848Z,1.13
2023-03-25T16:55:49.062Z,0.95
2023-03-25T16:58:20.429Z,2.42
2023-03-25T17:00:54.352Z,0.52
2023-03-25T17:03:41.813Z,0.28
2023-03-25T17:06:20.697Z,1.42
2023-03-25T17:08:51.878Z,1.00
2023-03-25T17:11:22.355Z,0.90
2023-03-25T17:13:55.168Z,0.77
2023-03-25T17:16:24.924Z,1.02
2023-03-25T17:18:56.416Z,0.93
2023-03-25T17:21:30.431Z,1.60
2023-03-25T17:24:02.145Z,1.48
2023-03-25T17:26:35.782Z,1.30
2023-03-25T17:29:10.329Z,0.98
2023-03-25T17:31:41.188Z,0.73
2023-03-25T17:34:13.203Z,1.00
2023-03-25T17:36:45.952Z,1.80
2023-03-25T17:39:19.860Z,0.95
2023-03-25T17:41:49.579Z,0.82
2023-03-25T17:44:19.816Z,1.77
2023-03-25T17:46:48.969Z,0.85
2023-03-25T17:49:19.629Z,1.23
2023-03-25T17:51:50.458Z,2.17
2023-03-25T17:54:19.658Z,2.28
2023-03-25T17:56:48.999Z,1.38
2023-03-25T17:59:20.329Z,2.53
2023-03-25T18:01:50.643Z,1.40
2023-03-25T18:04:21.278Z,1.48
2023-03-25T18:06:52.520Z,1.48
2023-03-25T18:09:23.958Z,3.20
2023-03-25T18:11:56.936Z,1.52
2023-03-25T18:14:26.647Z,4.30
2023-03-25T18:16:56.473Z,3.28
2023-03-25T18:19:30.219Z,2.15
2023-03-25T18:22:09.888Z,1.42
2023-03-25T18:24:48.950Z,1.88
2023-03-25T18:27:17.652Z,1.02
2023-03-25T18:29:46.391Z,4.50
2023-03-25T18:32:15.307Z,1.58
2023-03-25T18:34:44.894Z,1.30
2023-03-25T18:37:22.294Z,1.20
2023-03-25T18:39:51.626Z,0.80
2023-03-25T18:42:20.097Z,1.90
2023-03-25T18:44:50.199Z,0.88
2023-03-25T18:47:21.811Z,2.35
2023-03-25T18:49:50.964Z,2.03
2023-03-25T18:52:24.951Z,1.00
2023-03-25T18:54:53.768Z,1.65
2023-03-25T18:57:25.727Z,1.33
2023-03-25T18:59:54.432Z,1.50
2023-03-25T19:02:23.105Z,2.50
2023-03-25T19:05:00.779Z,1.65
2023-03-25T19:07:31.809Z,1.35
2023-03-25T19:10:00.800Z,2.13
2023-03-25T19:12:29.602Z,3.38
2023-03-25T19:14:58.616Z,1.20
2023-03-25T19:17:27.878Z,2.00
2023-03-25T19:19:56.757Z,2.08
2023-03-25T19:22:25.509Z,2.67
2023-03-25T19:24:55.881Z,2.13
2023-03-25T19:27:24.798Z,3.28
2023-03-25T19:29:54.574Z,3.08
2023-03-25T19:32:25.797Z,2.08
2023-03-25T19:34:56.884Z,3.80
2023-03-25T19:37:31.181Z,2.05
2023-03-25T19:40:02.836Z,0.90
2023-03-25T19:42:31.685Z,4.05
2023-03-25T19:45:00.374Z,1.83
2023-03-25T19:47:30.448Z,1.20
2023-03-25T19:50:00.496Z,2.38
2023-03-25T19:52:29.366Z,1.48
2023-03-25T19:55:01.245Z,0.63
2023-03-25T19:57:31.530Z,1.38
2023-03-25T20:00:00.542Z,1.30
2023-03-25T20:02:31.225Z,0.73
2023-03-25T20:05:00.352Z,0.90
2023-03-25T20:07:29.229Z,1.35
2023-03-25T20:10:04.348Z,0.95
2023-03-25T20:12:42.480Z,0.88
2023-03-25T20:15:12.923Z,0.73
2023-03-25T20:17:42.430Z,1.48
2023-03-25T20:20:19.072Z,2.10
2023-03-25T20:22:48.677Z,1.05
2023-03-25T20:25:18.810Z,1.35
2023-03-25T20:27:49.175Z,1.67
2023-03-25T20:30:21.410Z,2.58
2023-03-25T20:32:51.193Z,1.42
2023-03-25T20:35:22.228Z,0.90
2023-03-25T20:37:52.236Z,1.13
2023-03-25T20:40:27.816Z,1.75
2023-03-25T20:43:04.897Z,1.08
2023-03-25T20:45:33.607Z,1.33
2023-03-25T20:48:02.500Z,1.40
2023-03-25T20:50:32.707Z,1.30
2023-03-25T20:53:01.289Z,0.95
2023-03-25T20:55:31.662Z,1.92
2023-03-25T20:58:00.245Z,3.25
2023-03-25T21:00:31.068Z,2.95
2023-03-25T21:03:00.185Z,2.47
2023-03-25T21:05:29.113Z,3.20
2023-03-25T21:07:58.241Z,2.35
2023-03-25T21:10:27.522Z,1.52
2023-03-25T21:12:56.788Z,1.85
2023-03-25T21:15:26.337Z,3.00
2023-03-25T21:17:56.936Z,1.25
2023-03-25T21:20:28.470Z,1.35
2023-03-25T21:23:02.942Z,1.00
2023-03-25T21:25:36.090Z,2.28
2023-03-25T21:28:06.406Z,3.75
2023-03-25T21:30:35.124Z,1.85
2023-03-25T21:33:06.236Z,1.05
2023-03-25T21:35:35.284Z,1.70
2023-03-25T21:38:07.498Z,1.52
2023-03-25T21:40:39.706Z,1.98
2023-03-25T21:43:09.214Z,1.60
2023-03-25T21:45:38.075Z,2.05
2023-03-25T21:48:09.187Z,2.78
2023-03-25T21:50:38.827Z,3.00
2023-03-25T21:53:13.443Z,3.78
2023-03-25T21:55:41.934Z,1.73
2023-03-25T21:58:11.318Z,2.70
2023-03-25T22:00:41.656Z,1.85
2023-03-25T22:03:12.195Z,2.15
2023-03-25T22:05:40.919Z,1.23
2023-03-25T22:08:09.085Z,1.45
2023-03-25T22:10:37.287Z,1.35
2023-03-25T22:13:05.460Z,3.15
2023-03-25T22:15:34.585Z,5.25
2023-03-25T22:18:02.912Z,12.25
2023-03-25T22:20:32.535Z,11.68
2023-03-25T22:23:00.708Z,6.95
2023-03-25T22:25:28.965Z,9.65
2023-03-25T22:27:57.119Z,5.35
2023-03-25T22:30:25.357Z,4.95
2023-03-25T22:32:53.570Z,4.68
2023-03-25T22:35:21.778Z,5.53
2023-03-25T22:37:55.477Z,3.65
2023-03-25T22:40:24.714Z,4.05
2023-03-25T22:42:53.736Z,2.95
2023-03-25T22:45:22.895Z,2.67
2023-03-25T22:47:51.306Z,4.85
2023-03-25T22:50:19.758Z,2.20
2023-03-25T22:52:48.024Z,3.30
2023-03-25T22:55:17.769Z,3.40
2023-03-25T22:57:46.047Z,3.63
2023-03-25T23:00:15.714Z,5.47
2023-03-25T23:02:43.974Z,3.83
2023-03-25T23:05:14.769Z,3.28
2023-03-25T23:07:42.945Z,2.60
2023-03-25T23:10:13.662Z,1.73
2023-03-25T23:12:43.707Z,2.13
2023-03-25T23:15:14.081Z,1.90
2023-03-25T23:17:42.302Z,2.55
2023-03-25T23:20:11.593Z,2.85
2023-03-25T23:22:39.850Z,2.53
2023-03-25T23:25:09.718Z,3.15
2023-03-25T23:27:37.966Z,1.88
2023-03-25T23:30:09.203Z,3.35
2023-03-25T23:32:37.565Z,1.77
2023-03-25T23:35:06.377Z,2.05
2023-03-25T23:37:34.794Z,2.92
2023-03-25T23:40:04.381Z,3.03
2023-03-25T23:42:35.469Z,2.55
2023-03-25T23:45:04.562Z,5.03
2023-03-25T23:47:34.216Z,2.40
2023-03-25T23:50:02.497Z,3.08
2023-03-25T23:52:30.932Z,2.10
2023-03-25T23:54:59.115Z,3.97
2023-03-25T23:57:27.300Z,2.75
2023-03-25T23:59:55.488Z,2.05
